Adventure — SVKA — position and weather

sailwx.info

Track history (hours):
 
Tides and Currents Weather Stations Pressure Air Temp Water Temp Dewpoint Dewpoint Depression Visibility Wind Speed Wind Dir Waves Ship Positions

Adventure

Last reported at 2018-Feb-15 20:59 UTC. Time now 2018-Feb-18 22:21 UTC.
Position N 22°21' E 122°18'.

Length 333 m; draft 11 m.

Type: Tanker. MMSI: 240644000.

Date/timePositionNaut miles runAvg speedWind from/ knotsBaromVisibWave heightAir tempDewpointWater temp
2018-Feb-15 20:59N 22°21' E 122°18'8010.5
2018-Feb-15 13:25N 23°36' E 122°46'410.2
2018-Feb-15 13:00N 23°40' E 122°46'510.3
2018-Feb-15 12:30N 23°45' E 122°45'510.5
2018-Feb-15 12:01N 23°51' E 122°45'510.4
2018-Feb-15 11:30N 23°56' E 122°45'510.4
2018-Feb-15 11:01N 24°01' E 122°44'510.1
2018-Feb-15 10:30N 24°06' E 122°44'510.4
2018-Feb-15 10:00N 24°11' E 122°44'510.8
2018-Feb-15 09:31N 24°17' E 122°43'510.7
2018-Feb-15 09:01N 24°22' E 122°44'510.8
2018-Feb-15 08:30N 24°27' E 122°45'510.5
2018-Feb-15 08:00N 24°32' E 122°47'510.8
2018-Feb-15 07:30N 24°38' E 122°48'510.7
2018-Feb-15 07:00N 24°43' E 122°50'510.4
2018-Feb-15 06:30N 24°48' E 122°51'510.1
2018-Feb-15 06:00N 24°53' E 122°52'510.3
2018-Feb-15 05:30N 24°58' E 122°54'510.1
2018-Feb-15 05:00N 25°03' E 122°55'510.1
2018-Feb-15 04:29N 25°08' E 122°57'510.0
2018-Feb-15 04:00N 25°12' E 122°58'510.1
2018-Feb-15 03:30N 25°17' E 122°60'510.9
2018-Feb-15 03:01N 25°22' E 123°01'611.0
2018-Feb-15 02:30N 25°28' E 123°02'511.2
2018-Feb-15 02:00N 25°33' E 123°05'711.3
2018-Feb-15 01:25N 25°40' E 123°06'  
Track history (hours):
 
Tides and Currents Weather Stations Pressure Air Temp Water Temp Dewpoint Dewpoint Depression Visibility Wind Speed Wind Dir Waves Ship Positions

Adventure

Last reported at 2018-Feb-15 20:59 UTC. Time now 2018-Feb-18 22:21 UTC.
Position N 22°21' E 122°18'.

Length 333 m; draft 11 m.

Type: Tanker. MMSI: 240644000.

Date/timePositionNaut miles runAvg speedWind from/ knotsBaromVisibWave heightAir tempDewpointWater temp
2018-Feb-15 20:59N 22°21' E 122°18'8010.5
2018-Feb-15 13:25N 23°36' E 122°46'410.2
2018-Feb-15 13:00N 23°40' E 122°46'510.3
2018-Feb-15 12:30N 23°45' E 122°45'510.5
2018-Feb-15 12:01N 23°51' E 122°45'510.4
2018-Feb-15 11:30N 23°56' E 122°45'510.4
2018-Feb-15 11:01N 24°01' E 122°44'510.1
2018-Feb-15 10:30N 24°06' E 122°44'510.4
2018-Feb-15 10:00N 24°11' E 122°44'510.8
2018-Feb-15 09:31N 24°17' E 122°43'510.7
2018-Feb-15 09:01N 24°22' E 122°44'510.8
2018-Feb-15 08:30N 24°27' E 122°45'510.5
2018-Feb-15 08:00N 24°32' E 122°47'510.8
2018-Feb-15 07:30N 24°38' E 122°48'510.7
2018-Feb-15 07:00N 24°43' E 122°50'510.4
2018-Feb-15 06:30N 24°48' E 122°51'510.1
2018-Feb-15 06:00N 24°53' E 122°52'510.3
2018-Feb-15 05:30N 24°58' E 122°54'510.1
2018-Feb-15 05:00N 25°03' E 122°55'510.1
2018-Feb-15 04:29N 25°08' E 122°57'510.0
2018-Feb-15 04:00N 25°12' E 122°58'510.1
2018-Feb-15 03:30N 25°17' E 122°60'510.9
2018-Feb-15 03:01N 25°22' E 123°01'611.0
2018-Feb-15 02:30N 25°28' E 123°02'511.2
2018-Feb-15 02:00N 25°33' E 123°05'711.3
2018-Feb-15 01:25N 25°40' E 123°06'  

Dump ship's entire track history